Impacts METAR Board
IDs:

KPWG - Mc Gregor Executive, TX, US

Updated at: 1200 UTC 16 Jul 2019
Potential Impact None Slight Moderate High
Time 16/00Z 16/01Z 16/02Z 16/03Z 16/04Z 16/05Z 16/06Z 16/07Z 16/08Z 16/09Z 16/10Z 16/11Z 16/12Z
Temp 78 77
Dewpt 75 75
Altim 29.97 29.98
VIS 10 10
CIG -- --
CoverCLRCLR
FltCatVFRVFR
WX----
WDir180180
WSpd 9 8
WGst -- --
Raw hourly METARs











KPWG 161056Z AUTO 18009KT 10SM CLR 26/24 A2997 RMK AO2 SLP138 T02560239
KPWG 161156Z AUTO 18008KT 10SM CLR 25/24 A2998 RMK AO2 SLP144 T02500239 10278 20250 53015